Terminal Aerodrome Forecast
Issued by NWS Omaha/Valley, NE

Home | Current Version | Previous Version | Text Only | Print | Product List | Glossary Off
Versions: 1 2 3 4 5 6 7 8 9 10 11 12 13 14 15 16 17 18 19 20 21 22 23 24 25 26

000
FTUS43 KOAX 201525 AAB
TAFOFK
TAF AMD
KOFK 201525Z 2015/2112 16006KT 2SM BR BKN004 OVC015
      TEMPO 2015/2017 1/2SM FG OVC003
     FM201900 16008KT 3SM -DZ BR OVC015
     FM202300 13006KT 3SM -DZ BR OVC008
     FM210000 13006KT 3SM BR VCSH OVC008
     FM210100 13006KT 3SM BR VCSH OVC003
     FM210600 VRB03KT 1SM BR OVC003=

USA.gov is the U.S. government's official web portal to all federal, state and local government web resources and services.